Faxon, Oklahoma
Current Conditions -  °F | °C
As of 9:53 AM on Sunday 25 Jan 2015 (Local Time) from KLAW Reporting Station
Clear Clear  
Wind Chill: 55°   Ceiling: Unl
Heat Index: 55°   Visibility: 10mi
Dew Point: 28°   Wind: 15mph
Humidity: 35%   Direction: 310°NW
Pressure: 30.08"   Gusts: 25mph
Location:  34.46°N, 98.58°W
Report Text: KLAW 251553Z 31013G22KT 10SM CLR 13/M02 A3008 RMK AO2 SLP187 T01281022
Loading
Personal Weather Stations






























Interactive Weather Map New forecast layout! Learn more

10-Day Weather Forecast

Advertisements
Track Severe Weather on mobile